createdAt,value
2023-08-29T00:01:45.777Z,45.18
2023-08-29T00:04:13.139Z,45.21
2023-08-29T00:06:40.123Z,45.09
2023-08-29T00:09:07.160Z,45.18
2023-08-29T00:11:34.640Z,45.04
2023-08-29T00:14:01.681Z,45.21
2023-08-29T00:16:28.884Z,44.98
2023-08-29T00:18:55.922Z,45.28
2023-08-29T00:21:23.268Z,45.00
2023-08-29T00:23:50.942Z,45.02
2023-08-29T00:26:18.022Z,44.99
2023-08-29T00:28:45.542Z,45.15
2023-08-29T00:31:12.705Z,44.98
2023-08-29T00:33:39.943Z,44.95
2023-08-29T00:36:07.508Z,45.07
2023-08-29T00:38:34.548Z,44.83
2023-08-29T00:41:01.555Z,45.04
2023-08-29T00:43:28.757Z,45.03
2023-08-29T00:45:56.883Z,45.08
2023-08-29T00:48:24.328Z,44.84
2023-08-29T00:50:51.426Z,44.91
2023-08-29T00:53:18.580Z,44.79
2023-08-29T00:55:46.133Z,44.90
2023-08-29T00:58:14.215Z,44.78
2023-08-29T01:00:41.578Z,44.96
2023-08-29T01:03:09.133Z,44.86
2023-08-29T01:05:36.479Z,44.73
2023-08-29T01:08:05.736Z,44.71
2023-08-29T01:10:37.530Z,44.88
2023-08-29T01:13:43.594Z,44.90
2023-08-29T01:16:13.027Z,44.82
2023-08-29T01:18:41.964Z,44.98
2023-08-29T01:21:30.862Z,44.83
2023-08-29T01:24:18.063Z,45.02
2023-08-29T01:26:47.323Z,44.99
2023-08-29T01:29:16.460Z,45.10
2023-08-29T01:31:44.469Z,45.05
2023-08-29T01:34:14.653Z,45.03
2023-08-29T01:36:43.858Z,44.83
2023-08-29T01:39:11.416Z,44.95
2023-08-29T01:41:39.887Z,44.93
2023-08-29T01:44:07.657Z,45.00
2023-08-29T01:46:34.712Z,44.83
2023-08-29T01:49:04.067Z,45.09
2023-08-29T01:51:32.070Z,45.04
2023-08-29T01:53:59.637Z,44.87
2023-08-29T01:56:30.076Z,44.91
2023-08-29T01:58:59.269Z,44.99
2023-08-29T02:01:27.008Z,45.06
2023-08-29T02:03:54.190Z,44.84
2023-08-29T02:06:21.421Z,45.00
2023-08-29T02:08:48.656Z,44.85
2023-08-29T02:11:15.751Z,44.79
2023-08-29T02:13:42.877Z,44.88
2023-08-29T02:16:10.025Z,45.01
2023-08-29T02:18:37.178Z,44.77
2023-08-29T02:21:05.000Z,44.92
2023-08-29T02:23:32.661Z,44.94
2023-08-29T02:26:07.314Z,44.87
2023-08-29T02:28:39.205Z,44.86
2023-08-29T02:31:09.134Z,44.97
2023-08-29T02:33:41.134Z,44.86
2023-08-29T02:36:08.749Z,45.11
2023-08-29T02:38:36.397Z,44.92
2023-08-29T02:41:03.653Z,45.01
2023-08-29T02:43:31.039Z,44.86
2023-08-29T02:45:58.764Z,44.78
2023-08-29T02:48:26.941Z,44.76
2023-08-29T02:50:53.893Z,44.76
2023-08-29T02:53:22.471Z,44.74
2023-08-29T02:55:54.027Z,44.76
2023-08-29T02:58:21.381Z,44.71
2023-08-29T03:00:54.504Z,44.82
2023-08-29T03:03:21.957Z,44.77
2023-08-29T03:06:00.781Z,44.50
2023-08-29T03:08:28.112Z,44.62
2023-08-29T03:10:55.351Z,44.59
2023-08-29T03:13:23.009Z,44.53
2023-08-29T03:15:50.484Z,44.60
2023-08-29T03:18:18.135Z,44.45
2023-08-29T03:20:46.481Z,44.63
2023-08-29T03:23:13.962Z,44.62
2023-08-29T03:25:41.022Z,44.61
2023-08-29T03:28:08.639Z,44.64
2023-08-29T03:30:36.042Z,44.62
2023-08-29T03:33:03.407Z,44.56
2023-08-29T03:35:31.379Z,44.43
2023-08-29T03:37:58.711Z,44.54
2023-08-29T03:40:25.955Z,44.42
2023-08-29T03:42:54.444Z,44.72
2023-08-29T03:45:21.607Z,44.60
2023-08-29T03:47:49.760Z,44.67
2023-08-29T03:50:19.098Z,44.54
2023-08-29T03:52:48.667Z,44.39
2023-08-29T03:55:16.257Z,44.42
2023-08-29T03:57:43.485Z,44.54
2023-08-29T04:00:12.126Z,44.48
2023-08-29T04:02:42.950Z,44.64
2023-08-29T04:05:16.440Z,44.63
2023-08-29T04:07:44.172Z,44.50
2023-08-29T04:10:14.165Z,44.48
2023-08-29T04:12:41.436Z,44.64
2023-08-29T04:15:08.942Z,44.44
2023-08-29T04:17:36.142Z,44.63
2023-08-29T04:20:09.845Z,44.54
2023-08-29T04:22:37.534Z,44.37
2023-08-29T04:25:06.018Z,44.58
2023-08-29T04:27:33.190Z,44.45
2023-08-29T04:30:00.448Z,44.45
2023-08-29T04:32:27.566Z,44.46
2023-08-29T04:34:54.796Z,44.50
2023-08-29T04:37:21.850Z,44.51
2023-08-29T04:39:49.001Z,44.70
2023-08-29T04:42:16.151Z,44.66
2023-08-29T04:44:44.795Z,44.62
2023-08-29T04:47:13.732Z,44.59
2023-08-29T04:49:41.327Z,44.47
2023-08-29T04:52:08.453Z,44.39
2023-08-29T04:54:35.533Z,44.39
2023-08-29T04:57:04.533Z,44.51
2023-08-29T04:59:32.390Z,44.42
2023-08-29T05:02:00.873Z,44.53
2023-08-29T05:04:28.035Z,44.52
2023-08-29T05:06:55.224Z,44.39
2023-08-29T05:09:22.436Z,44.29
2023-08-29T05:11:49.782Z,44.38
2023-08-29T05:14:17.140Z,44.42
2023-08-29T05:16:45.139Z,44.39
2023-08-29T05:19:12.506Z,44.29
2023-08-29T05:21:39.760Z,44.41
2023-08-29T05:24:09.984Z,44.32
2023-08-29T05:26:37.021Z,44.35
2023-08-29T05:29:04.342Z,44.41
2023-08-29T05:31:31.487Z,44.24
2023-08-29T05:33:58.792Z,44.53
2023-08-29T05:36:25.925Z,44.58
2023-08-29T05:38:52.888Z,44.67
2023-08-29T05:41:20.029Z,44.35
2023-08-29T05:43:47.076Z,44.58
2023-08-29T05:46:14.435Z,44.51
2023-08-29T05:48:41.471Z,44.53
2023-08-29T05:51:08.623Z,44.39
2023-08-29T05:53:35.895Z,44.36
2023-08-29T05:56:03.092Z,44.54
2023-08-29T05:58:30.076Z,44.22
2023-08-29T06:00:57.167Z,44.46
2023-08-29T06:03:24.617Z,44.33
2023-08-29T06:05:52.218Z,44.52
2023-08-29T06:08:20.570Z,44.57
2023-08-29T06:10:48.204Z,44.57
2023-08-29T06:13:15.276Z,44.69
2023-08-29T06:15:42.422Z,44.50
2023-08-29T06:18:10.670Z,44.44
2023-08-29T06:20:37.919Z,44.44
2023-08-29T06:23:06.495Z,44.51
2023-08-29T06:25:33.836Z,44.44
2023-08-29T06:28:01.265Z,44.60
2023-08-29T06:30:28.560Z,44.52
2023-08-29T06:32:55.883Z,44.65
2023-08-29T06:35:23.027Z,44.79
2023-08-29T06:37:51.267Z,44.60
2023-08-29T06:40:18.537Z,44.70
2023-08-29T06:42:45.646Z,44.67
2023-08-29T06:45:12.888Z,44.60
2023-08-29T06:47:40.160Z,44.61
2023-08-29T06:50:10.161Z,44.55
2023-08-29T06:52:37.201Z,44.59
2023-08-29T06:55:04.772Z,44.48
2023-08-29T06:57:31.807Z,44.55
2023-08-29T06:59:58.853Z,44.40
2023-08-29T07:02:27.489Z,44.45
2023-08-29T07:04:55.002Z,44.56
2023-08-29T07:07:22.149Z,44.89
2023-08-29T07:09:49.309Z,44.59
2023-08-29T07:12:17.002Z,44.61
2023-08-29T07:14:45.347Z,44.58
2023-08-29T07:17:12.653Z,44.72
2023-08-29T07:19:40.144Z,44.62
2023-08-29T07:22:21.863Z,44.60
2023-08-29T07:24:50.525Z,44.68
2023-08-29T07:27:17.570Z,44.59
2023-08-29T07:29:44.995Z,44.70
2023-08-29T07:32:12.075Z,44.56
2023-08-29T07:34:41.535Z,44.49
2023-08-29T07:37:09.247Z,44.66
2023-08-29T07:39:36.629Z,44.58
2023-08-29T07:42:04.790Z,44.62
2023-08-29T07:44:32.624Z,44.49
2023-08-29T07:49:29.980Z,44.25
2023-08-29T07:51:57.355Z,44.29
2023-08-29T07:54:24.635Z,44.30
2023-08-29T07:56:51.721Z,43.85
2023-08-29T07:59:19.154Z,43.91
2023-08-29T08:01:46.929Z,43.90
2023-08-29T08:04:14.373Z,43.57
2023-08-29T08:06:41.467Z,43.63
2023-08-29T08:09:09.474Z,43.59
2023-08-29T08:11:36.786Z,43.44
2023-08-29T08:14:04.645Z,43.56
2023-08-29T08:16:31.721Z,43.42
2023-08-29T08:18:58.890Z,43.23
2023-08-29T08:21:25.941Z,43.26
2023-08-29T08:23:53.914Z,43.05
2023-08-29T08:26:21.050Z,43.00
2023-08-29T08:28:48.039Z,43.06
2023-08-29T08:31:15.087Z,43.14
2023-08-29T08:33:42.423Z,42.77
2023-08-29T08:36:09.752Z,42.94
2023-08-29T08:38:37.417Z,42.78
2023-08-29T08:41:06.002Z,42.81
2023-08-29T08:43:33.102Z,42.59
2023-08-29T08:46:00.654Z,42.59
2023-08-29T08:48:28.228Z,42.56
2023-08-29T08:50:56.340Z,42.34
2023-08-29T08:53:23.546Z,42.24
2023-08-29T08:55:51.151Z,42.33
2023-08-29T08:58:19.610Z,42.26
2023-08-29T09:00:47.557Z,42.28
2023-08-29T09:03:18.169Z,41.89
2023-08-29T09:05:45.403Z,42.06
2023-08-29T09:08:12.495Z,41.90
2023-08-29T09:10:41.160Z,41.78
2023-08-29T09:13:19.255Z,41.95
2023-08-29T09:15:49.504Z,41.66
2023-08-29T09:18:25.882Z,41.65
2023-08-29T09:20:54.637Z,41.66
2023-08-29T09:23:26.322Z,41.49
2023-08-29T09:25:58.422Z,41.58
2023-08-29T09:28:30.525Z,41.55
2023-08-29T09:31:06.046Z,41.38
2023-08-29T09:33:34.280Z,41.53
2023-08-29T09:36:06.499Z,41.12
2023-08-29T09:38:34.755Z,41.24
2023-08-29T09:41:03.027Z,41.14
2023-08-29T09:43:31.202Z,41.10
2023-08-29T09:45:59.651Z,41.07
2023-08-29T09:48:29.567Z,41.02
2023-08-29T09:51:00.334Z,40.93
2023-08-29T09:53:30.193Z,40.87
2023-08-29T09:56:06.863Z,40.60
2023-08-29T09:58:34.715Z,40.65
2023-08-29T10:01:03.784Z,40.76
2023-08-29T10:03:31.491Z,40.54
2023-08-29T10:06:03.094Z,40.58
2023-08-29T10:08:44.944Z,40.75
2023-08-29T10:11:12.027Z,40.69
2023-08-29T10:13:41.550Z,40.47
2023-08-29T10:16:08.684Z,40.54
2023-08-29T10:18:36.347Z,40.45
2023-08-29T10:21:05.548Z,40.64
2023-08-29T10:23:33.412Z,40.57
2023-08-29T10:26:02.378Z,40.26
2023-08-29T10:28:33.048Z,40.51
2023-08-29T10:31:03.860Z,40.58
2023-08-29T10:33:31.230Z,40.43
2023-08-29T10:35:58.486Z,40.38
2023-08-29T10:38:27.894Z,40.40
2023-08-29T10:41:12.448Z,40.27
2023-08-29T10:43:39.613Z,40.37
2023-08-29T10:46:13.351Z,40.56
2023-08-29T10:48:40.588Z,40.33
2023-08-29T10:51:21.019Z,40.36
2023-08-29T10:53:58.679Z,40.32
2023-08-29T10:56:29.458Z,40.25
2023-08-29T10:58:56.987Z,39.94
2023-08-29T11:01:29.950Z,39.92
2023-08-29T11:03:58.705Z,40.06
2023-08-29T11:06:28.381Z,39.92
2023-08-29T11:09:22.524Z,40.01
2023-08-29T11:12:08.532Z,39.98
2023-08-29T11:14:54.949Z,40.16
2023-08-29T11:17:26.369Z,40.27
2023-08-29T11:19:54.770Z,40.11
2023-08-29T11:22:24.110Z,40.27
2023-08-29T11:24:58.537Z,40.40
2023-08-29T11:27:27.439Z,40.54
2023-08-29T11:30:11.101Z,40.68
2023-08-29T11:32:42.310Z,40.98
2023-08-29T11:35:12.944Z,40.93
2023-08-29T11:37:40.678Z,40.98
2023-08-29T11:40:12.942Z,41.25
2023-08-29T11:43:23.922Z,41.17
2023-08-29T11:45:46.382Z,41.34
2023-08-29T11:48:30.173Z,41.50
2023-08-29T11:51:00.438Z,41.46
2023-08-29T11:53:51.332Z,41.50
2023-08-29T11:56:18.560Z,41.59
2023-08-29T11:58:45.941Z,41.58
2023-08-29T12:01:13.133Z,41.51
2023-08-29T12:03:40.772Z,41.44
2023-08-29T12:06:12.627Z,41.30
2023-08-29T12:08:47.056Z,41.51
2023-08-29T12:11:17.177Z,41.39
2023-08-29T12:14:02.907Z,41.39
2023-08-29T12:16:32.499Z,41.09
2023-08-29T12:19:13.825Z,41.12
2023-08-29T12:21:40.886Z,41.21
2023-08-29T12:24:15.957Z,41.02
2023-08-29T12:26:43.164Z,41.00
2023-08-29T12:29:10.741Z,41.01
2023-08-29T12:31:38.823Z,40.73
2023-08-29T12:34:06.052Z,40.89
2023-08-29T12:36:33.117Z,40.87
2023-08-29T12:39:00.309Z,40.81
2023-08-29T12:41:27.429Z,40.80
2023-08-29T12:43:57.107Z,40.44
2023-08-29T12:46:24.140Z,40.43
2023-08-29T12:48:51.163Z,40.62
2023-08-29T12:51:18.452Z,40.41
2023-08-29T12:53:45.604Z,40.53
2023-08-29T12:56:13.773Z,40.57
2023-08-29T12:58:40.819Z,40.70
2023-08-29T13:01:08.067Z,40.69
2023-08-29T13:03:35.814Z,40.61
2023-08-29T13:06:02.992Z,40.68
2023-08-29T13:08:30.263Z,40.83
2023-08-29T13:10:57.388Z,41.17
2023-08-29T13:13:24.354Z,41.17
2023-08-29T13:15:51.998Z,41.15
2023-08-29T13:18:20.003Z,41.16
2023-08-29T13:20:47.426Z,41.29
2023-08-29T13:23:14.453Z,41.46
2023-08-29T13:25:41.523Z,41.42
2023-08-29T13:28:08.928Z,41.51
2023-08-29T13:30:37.218Z,41.39
2023-08-29T13:33:05.215Z,41.52
2023-08-29T13:35:32.174Z,41.52
2023-08-29T13:37:59.321Z,41.89
2023-08-29T13:40:26.368Z,42.14
2023-08-29T13:42:53.801Z,42.05
2023-08-29T13:45:21.254Z,42.22
2023-08-29T13:47:48.866Z,42.27
2023-08-29T13:50:16.284Z,42.20
2023-08-29T13:52:43.474Z,42.22
2023-08-29T13:55:10.826Z,42.28
2023-08-29T13:57:38.386Z,42.16
2023-08-29T14:00:06.727Z,42.15
2023-08-29T14:02:40.852Z,42.31
2023-08-29T14:05:08.545Z,42.28
2023-08-29T14:07:35.661Z,42.18
2023-08-29T14:10:02.637Z,42.29
2023-08-29T14:12:29.719Z,42.06
2023-08-29T14:14:56.623Z,42.22
2023-08-29T14:17:23.644Z,42.12
2023-08-29T14:19:50.658Z,42.21
2023-08-29T14:22:17.744Z,42.11
2023-08-29T14:24:44.890Z,42.12
2023-08-29T14:27:12.037Z,42.12
2023-08-29T14:29:39.094Z,42.12
2023-08-29T14:32:07.712Z,42.01
2023-08-29T14:34:34.934Z,42.01
2023-08-29T14:37:02.691Z,42.17
2023-08-29T14:39:29.685Z,42.10
2023-08-29T14:41:56.911Z,42.12
2023-08-29T14:44:24.262Z,42.08
2023-08-29T14:46:51.605Z,42.16
2023-08-29T14:49:18.652Z,42.00
2023-08-29T14:51:46.407Z,42.18
2023-08-29T14:54:13.377Z,42.08
2023-08-29T14:56:40.444Z,42.13
2023-08-29T14:59:07.498Z,42.04
2023-08-29T15:01:38.028Z,42.09
2023-08-29T15:04:06.681Z,42.02
2023-08-29T15:06:34.629Z,42.25
2023-08-29T15:09:02.085Z,42.03
2023-08-29T15:11:29.128Z,41.99
2023-08-29T15:13:56.293Z,42.02
2023-08-29T15:16:23.410Z,41.98
2023-08-29T15:18:50.580Z,42.17
2023-08-29T15:21:19.659Z,42.08
2023-08-29T15:23:47.728Z,42.09
2023-08-29T15:26:14.736Z,42.07
2023-08-29T15:28:42.016Z,42.07
2023-08-29T15:31:09.066Z,42.08
2023-08-29T15:33:36.047Z,42.02
2023-08-29T15:36:03.094Z,41.95
2023-08-29T15:38:30.854Z,42.06
2023-08-29T15:40:58.193Z,41.87
2023-08-29T15:43:26.126Z,41.95
2023-08-29T15:45:53.579Z,41.99
2023-08-29T15:48:20.899Z,41.86
2023-08-29T15:50:48.407Z,41.94
2023-08-29T15:53:16.475Z,42.00
2023-08-29T15:55:47.468Z,42.09
2023-08-29T15:58:15.942Z,42.01
2023-08-29T16:00:43.022Z,42.12
2023-08-29T16:03:10.228Z,42.20
2023-08-29T16:05:37.435Z,42.09
2023-08-29T16:08:05.360Z,42.17
2023-08-29T16:10:32.683Z,42.16
2023-08-29T16:12:59.989Z,42.03
2023-08-29T16:15:27.038Z,42.04
2023-08-29T16:17:54.131Z,42.05
2023-08-29T16:20:22.555Z,41.97
2023-08-29T16:22:49.676Z,42.12
2023-08-29T16:25:16.631Z,42.27
2023-08-29T16:27:43.902Z,42.43
2023-08-29T16:30:12.960Z,42.47
2023-08-29T16:32:43.748Z,42.39
2023-08-29T16:35:10.886Z,42.40
2023-08-29T16:37:38.752Z,42.39
2023-08-29T16:40:10.192Z,42.32
2023-08-29T16:42:37.444Z,42.32
2023-08-29T16:45:06.480Z,42.34
2023-08-29T16:47:34.840Z,42.28
2023-08-29T16:50:02.148Z,42.46
2023-08-29T16:52:29.334Z,42.49
2023-08-29T16:54:56.768Z,42.35
2023-08-29T16:57:24.472Z,42.47
2023-08-29T16:59:59.567Z,42.41
2023-08-29T17:02:27.501Z,42.16
2023-08-29T17:04:56.091Z,42.19
2023-08-29T17:07:23.496Z,42.07
2023-08-29T17:09:50.625Z,42.13
2023-08-29T17:12:19.432Z,42.05
2023-08-29T17:14:47.279Z,42.10
2023-08-29T17:17:14.389Z,42.09
2023-08-29T17:19:42.871Z,41.95
2023-08-29T17:22:10.774Z,42.12
2023-08-29T17:24:38.739Z,42.08
2023-08-29T17:27:07.042Z,41.87
2023-08-29T17:29:34.174Z,42.11
2023-08-29T17:32:01.353Z,41.93
2023-08-29T17:34:28.793Z,42.02
2023-08-29T17:36:59.102Z,41.75
2023-08-29T17:39:26.462Z,41.65
2023-08-29T17:41:53.607Z,41.47
2023-08-29T17:44:22.500Z,41.62
2023-08-29T17:46:49.848Z,41.61
2023-08-29T17:49:18.741Z,41.77
2023-08-29T17:51:46.344Z,41.75
2023-08-29T17:54:13.665Z,41.62
2023-08-29T17:56:40.809Z,41.68
2023-08-29T17:59:07.826Z,41.84
2023-08-29T18:01:35.310Z,41.64
2023-08-29T18:04:02.460Z,41.94
2023-08-29T18:06:30.408Z,41.93
2023-08-29T18:08:57.488Z,41.89
2023-08-29T18:11:24.410Z,41.93
2023-08-29T18:13:51.476Z,42.07
2023-08-29T18:16:18.552Z,42.41
2023-08-29T18:18:46.298Z,42.57
2023-08-29T18:21:13.642Z,43.33
2023-08-29T18:23:41.265Z,43.86
2023-08-29T18:26:10.502Z,43.84
2023-08-29T18:28:39.801Z,44.17
2023-08-29T18:31:07.486Z,44.17
2023-08-29T18:33:35.323Z,44.01
2023-08-29T18:36:02.777Z,43.81
2023-08-29T18:38:29.818Z,43.91
2023-08-29T18:40:57.277Z,43.86
2023-08-29T18:43:24.269Z,43.71
2023-08-29T18:45:51.908Z,43.91
2023-08-29T18:48:20.744Z,43.80
2023-08-29T18:50:48.134Z,43.96
2023-08-29T18:53:15.592Z,43.71
2023-08-29T18:55:43.430Z,43.67
2023-08-29T18:58:11.060Z,43.66
2023-08-29T19:00:39.289Z,43.64
2023-08-29T19:03:07.528Z,43.56
2023-08-29T19:05:36.898Z,43.55
2023-08-29T19:08:04.658Z,43.36
2023-08-29T19:10:31.888Z,43.59
2023-08-29T19:12:58.938Z,43.32
2023-08-29T19:15:26.303Z,43.23
2023-08-29T19:17:54.032Z,43.36
2023-08-29T19:20:21.977Z,43.19
2023-08-29T19:22:49.081Z,43.30
2023-08-29T19:25:18.172Z,43.16
2023-08-29T19:27:45.206Z,43.00
2023-08-29T19:30:12.660Z,43.01
2023-08-29T19:32:40.169Z,42.93
2023-08-29T19:35:07.863Z,42.79
2023-08-29T19:37:35.056Z,42.64
2023-08-29T19:40:02.207Z,42.47
2023-08-29T19:42:29.258Z,42.69
2023-08-29T19:44:56.300Z,42.61
2023-08-29T19:47:26.636Z,42.60
2023-08-29T19:49:53.596Z,42.52
2023-08-29T19:52:21.056Z,42.56
2023-08-29T19:54:48.312Z,42.60
2023-08-29T19:57:16.028Z,42.50
2023-08-29T19:59:43.088Z,42.63
2023-08-29T20:02:10.796Z,42.55
2023-08-29T20:04:37.994Z,42.76
2023-08-29T20:07:05.683Z,42.83
2023-08-29T20:09:33.012Z,42.57
2023-08-29T20:12:00.256Z,42.71
2023-08-29T20:14:30.503Z,42.61
2023-08-29T20:17:04.270Z,42.72
2023-08-29T20:19:33.091Z,42.66
2023-08-29T20:22:00.410Z,42.81
2023-08-29T20:24:27.434Z,42.77
2023-08-29T20:26:54.641Z,42.88
2023-08-29T20:29:22.624Z,42.89
2023-08-29T20:31:49.592Z,42.94
2023-08-29T20:34:17.005Z,42.77
2023-08-29T20:36:44.422Z,42.94
2023-08-29T20:39:11.884Z,42.86
2023-08-29T20:41:38.962Z,42.81
2023-08-29T20:44:06.308Z,42.93
2023-08-29T20:46:33.477Z,42.88
2023-08-29T20:49:00.717Z,43.06
2023-08-29T20:51:28.689Z,43.07
2023-08-29T20:53:56.658Z,42.93
2023-08-29T20:56:23.698Z,43.03
2023-08-29T20:58:50.698Z,43.30
2023-08-29T21:01:17.862Z,43.32
2023-08-29T21:03:45.038Z,43.37
2023-08-29T21:06:12.364Z,43.34
2023-08-29T21:08:39.444Z,43.51
2023-08-29T21:11:06.438Z,43.75
2023-08-29T21:13:33.685Z,43.90
2023-08-29T21:16:00.726Z,43.78
2023-08-29T21:18:27.753Z,43.84
2023-08-29T21:20:58.899Z,43.84
2023-08-29T21:23:26.369Z,43.86
2023-08-29T21:25:54.492Z,43.69
2023-08-29T21:28:26.697Z,44.04
2023-08-29T21:30:54.699Z,44.08
2023-08-29T21:33:23.199Z,43.87
2023-08-29T21:35:51.516Z,43.96
2023-08-29T21:38:18.515Z,43.84
2023-08-29T21:40:47.528Z,43.75
2023-08-29T21:43:22.562Z,43.92
2023-08-29T21:45:56.063Z,44.01
2023-08-29T21:48:25.743Z,43.84
2023-08-29T21:50:53.588Z,43.96
2023-08-29T21:53:20.666Z,44.01
2023-08-29T21:55:47.923Z,43.84
2023-08-29T21:58:20.391Z,43.83
2023-08-29T22:00:54.680Z,43.92
2023-08-29T22:03:25.620Z,44.11
2023-08-29T22:05:53.572Z,43.98
2023-08-29T22:08:22.099Z,43.96
2023-08-29T22:10:49.812Z,43.81
2023-08-29T22:13:16.786Z,43.89
2023-08-29T22:15:43.917Z,43.86
2023-08-29T22:18:11.949Z,44.03
2023-08-29T22:20:39.629Z,43.75
2023-08-29T22:23:06.787Z,43.80
2023-08-29T22:25:33.974Z,43.90
2023-08-29T22:28:00.998Z,43.84
2023-08-29T22:30:28.487Z,43.94
2023-08-29T22:32:56.049Z,43.85
2023-08-29T22:35:23.173Z,43.91
2023-08-29T22:37:50.325Z,43.95
2023-08-29T22:40:18.087Z,44.19
2023-08-29T22:42:45.905Z,43.96
2023-08-29T22:45:14.788Z,44.07
2023-08-29T22:47:42.640Z,44.03
2023-08-29T22:50:10.040Z,43.92
2023-08-29T22:52:40.117Z,43.98
2023-08-29T22:55:08.038Z,44.04
2023-08-29T22:57:36.428Z,44.18
2023-08-29T23:00:04.324Z,44.28
2023-08-29T23:02:31.652Z,44.14
2023-08-29T23:04:58.821Z,44.08
2023-08-29T23:07:25.932Z,44.28
2023-08-29T23:09:53.071Z,44.17
2023-08-29T23:12:20.498Z,44.11
2023-08-29T23:14:47.690Z,44.06
2023-08-29T23:17:14.735Z,43.97
2023-08-29T23:19:45.576Z,44.03
2023-08-29T23:22:12.820Z,44.25
2023-08-29T23:24:40.014Z,44.10
2023-08-29T23:27:07.462Z,44.36
2023-08-29T23:29:34.662Z,44.18
2023-08-29T23:32:01.601Z,44.27
2023-08-29T23:34:28.639Z,44.19
2023-08-29T23:36:55.614Z,44.06
2023-08-29T23:39:22.659Z,44.24
2023-08-29T23:41:49.702Z,44.06
2023-08-29T23:44:16.690Z,44.09
2023-08-29T23:46:43.828Z,44.15
2023-08-29T23:49:10.908Z,44.11
2023-08-29T23:51:37.921Z,44.19
2023-08-29T23:54:05.156Z,44.08
2023-08-29T23:56:32.201Z,44.05
2023-08-29T23:58:59.242Z,44.24
